Time;durP1;ratioP1;P1;durP2;ratioP2;P2;SDS_P1;SDS_P2;PMS_P1;PMS_P2;Temp;Humidity;BMP_temperature;BMP_pressure;BME280_temperature;BME280_humidity;BME280_pressure;Samples;Min_cycle;Max_cycle;Signal;HPM_P1;HPM_P2
2023/07/21 00:00:21;;;;;;;6.80;6.20;;;16.40;99.90;;;;;;5065226;28;20177;-71
2023/07/21 00:02:48;;;;;;;14.23;6.87;;;16.40;99.90;;;;;;5066869;28;20411;-71
2023/07/21 00:05:15;;;;;;;7.27;6.77;;;16.50;99.90;;;;;;5062673;28;20554;-71
2023/07/21 00:07:41;;;;;;;7.97;7.27;;;16.50;99.90;;;;;;5064636;28;20441;-71
2023/07/21 00:10:08;;;;;;;7.50;6.90;;;16.50;99.90;;;;;;5071014;28;20500;-71
2023/07/21 00:12:47;;;;;;;7.73;7.00;;;16.60;99.90;;;;;;5070109;28;20414;-71
2023/07/21 00:15:15;;;;;;;6.77;6.17;;;16.50;99.90;;;;;;5070467;28;20406;-71
2023/07/21 00:17:42;;;;;;;8.10;7.43;;;16.50;99.90;;;;;;5070338;28;20430;-71
2023/07/21 00:20:12;;;;;;;7.87;6.80;;;16.60;99.90;;;;;;5070465;28;20447;-71
2023/07/21 00:22:41;;;;;;;7.47;6.87;;;16.50;99.90;;;;;;5069874;28;20413;-71
2023/07/21 00:25:11;;;;;;;7.17;6.57;;;16.40;99.90;;;;;;5069931;28;20451;-71
2023/07/21 00:27:43;;;;;;;7.20;6.57;;;16.30;99.90;;;;;;5069908;28;20476;-71
2023/07/21 00:30:09;;;;;;;7.63;7.03;;;16.20;99.90;;;;;;5070293;28;20403;-71
2023/07/21 00:32:36;;;;;;;7.20;6.70;;;16.20;99.90;;;;;;5069913;28;20414;-71
2023/07/21 00:35:08;;;;;;;7.20;6.47;;;16.10;99.90;;;;;;5069849;28;20415;-71
2023/07/21 00:37:34;;;;;;;6.70;6.20;;;16.10;99.90;;;;;;5069711;28;20431;-71
2023/07/21 00:40:03;;;;;;;7.20;6.60;;;16.10;99.90;;;;;;5070076;28;20485;-71
2023/07/21 00:42:29;;;;;;;7.50;6.90;;;16.00;99.90;;;;;;5069751;28;20415;-71
2023/07/21 00:44:56;;;;;;;7.20;6.60;;;15.90;99.90;;;;;;5069323;28;20530;-71
2023/07/21 00:47:27;;;;;;;6.57;6.07;;;15.90;99.90;;;;;;5069799;28;21009;-71
2023/07/21 00:49:53;;;;;;;6.47;5.97;;;15.90;99.90;;;;;;5070182;28;20422;-71
2023/07/21 00:52:19;;;;;;;7.10;6.50;;;15.80;99.90;;;;;;5069579;28;20660;-71
2023/07/21 00:54:47;;;;;;;6.53;5.97;;;15.80;99.90;;;;;;5051837;28;20499;-71
2023/07/21 00:57:14;;;;;;;6.80;6.10;;;15.70;99.90;;;;;;5068959;28;20435;-71
2023/07/21 00:59:40;;;;;;;6.00;5.50;;;15.60;99.90;;;;;;5068605;28;20461;-70
2023/07/21 01:02:06;;;;;;;6.13;5.53;;;15.60;99.90;;;;;;5069669;28;20412;-71
2023/07/21 01:04:33;;;;;;;5.70;5.20;;;15.60;99.90;;;;;;5069464;28;20212;-71
2023/07/21 01:07:03;;;;;;;6.00;5.50;;;15.70;99.90;;;;;;5069103;28;20192;-71
2023/07/21 01:09:30;;;;;;;5.30;4.90;;;15.60;99.90;;;;;;5069732;28;20939;-71
2023/07/21 01:11:56;;;;;;;6.20;5.70;;;15.60;99.90;;;;;;5069529;28;20491;-71
2023/07/21 01:14:22;;;;;;;5.80;5.30;;;15.60;99.90;;;;;;5068992;28;20836;-71
2023/07/21 01:16:48;;;;;;;6.07;5.47;;;15.70;99.90;;;;;;5069181;28;20434;-71
2023/07/21 01:19:15;;;;;;;5.60;5.20;;;15.70;99.90;;;;;;5069344;28;20173;-71
2023/07/21 01:21:49;;;;;;;5.90;5.17;;;15.60;99.90;;;;;;5068300;28;20920;-71
2023/07/21 01:24:27;;;;;;;5.40;5.00;;;15.60;99.90;;;;;;5068825;28;20538;-71
2023/07/21 01:26:55;;;;;;;5.50;5.10;;;15.50;99.90;;;;;;5068781;28;20431;-71
2023/07/21 01:29:23;;;;;;;5.80;5.40;;;15.40;99.90;;;;;;5069181;28;20502;-71
2023/07/21 01:31:50;;;;;;;6.20;5.70;;;15.30;99.90;;;;;;5069086;28;20453;-71
2023/07/21 01:34:16;;;;;;;6.27;5.77;;;15.20;99.90;;;;;;5068675;28;20546;-71
2023/07/21 01:36:43;;;;;;;6.10;5.60;;;15.10;99.90;;;;;;5069069;28;20459;-71
2023/07/21 01:39:10;;;;;;;6.50;6.00;;;15.10;99.90;;;;;;5067467;28;20416;-71
2023/07/21 01:41:37;;;;;;;6.00;5.50;;;15.10;99.90;;;;;;5069172;28;20415;-71
2023/07/21 01:44:03;;;;;;;6.70;6.20;;;15.00;99.90;;;;;;5068497;28;20443;-71
2023/07/21 01:46:29;;;;;;;7.03;6.43;;;15.00;99.90;;;;;;5068878;28;20423;-71
2023/07/21 01:48:55;;;;;;;6.57;6.07;;;15.00;99.90;;;;;;5068063;28;20411;-71
2023/07/21 01:51:22;;;;;;;6.00;5.60;;;15.00;99.90;;;;;;5069214;28;20418;-71
2023/07/21 01:53:59;;;;;;;7.60;5.87;;;15.10;99.90;;;;;;5068742;28;20177;-71
2023/07/21 01:56:34;;;;;;;6.10;5.70;;;15.20;99.90;;;;;;5065965;28;20440;-71
2023/07/21 01:59:06;;;;;;;6.70;6.10;;;15.20;99.90;;;;;;5068733;28;20454;-71
2023/07/21 02:01:34;;;;;;;6.43;5.83;;;15.10;99.90;;;;;;5069090;28;20788;-71
2023/07/21 02:04:00;;;;;;;5.83;5.33;;;15.10;99.90;;;;;;5067879;28;20463;-71
2023/07/21 02:06:26;;;;;;;6.00;5.50;;;15.00;99.90;;;;;;5068710;28;20767;-71
2023/07/21 02:08:52;;;;;;;6.07;5.57;;;15.00;99.90;;;;;;5068213;28;20495;-71
2023/07/21 02:11:20;;;;;;;6.13;5.73;;;14.90;99.90;;;;;;5068684;28;20824;-71
2023/07/21 02:13:46;;;;;;;6.07;5.57;;;15.00;99.90;;;;;;5067868;28;20533;-71
2023/07/21 02:16:12;;;;;;;6.00;5.50;;;15.00;99.90;;;;;;5049893;28;21257;-71
2023/07/21 02:18:41;;;;;;;5.20;4.80;;;15.00;99.90;;;;;;5067205;28;20411;-71
2023/07/21 02:21:06;;;;;;;5.10;4.67;;;14.90;99.90;;;;;;5068012;28;20422;-71
2023/07/21 02:23:32;;;;;;;5.77;5.27;;;14.90;99.90;;;;;;5066575;28;20411;-71
2023/07/21 02:26:01;;;;;;;6.03;5.53;;;14.90;99.90;;;;;;5067766;28;20209;-71
2023/07/21 02:28:27;;;;;;;5.90;5.30;;;14.90;99.90;;;;;;5068007;28;20181;-71
2023/07/21 02:31:03;;;;;;;5.50;5.00;;;14.90;99.90;;;;;;5068062;28;20464;-71
2023/07/21 02:33:33;;;;;;;5.67;5.10;;;14.90;99.90;;;;;;5067766;28;20408;-71
2023/07/21 02:36:02;;;;;;;6.37;5.77;;;14.90;99.90;;;;;;5067385;28;20440;-71
2023/07/21 02:38:28;;;;;;;5.70;5.20;;;14.90;99.90;;;;;;5068007;28;20458;-71
2023/07/21 02:40:55;;;;;;;6.80;6.20;;;14.90;99.90;;;;;;5066983;28;20399;-71
2023/07/21 02:43:23;;;;;;;6.00;5.50;;;14.90;99.90;;;;;;5067856;28;20427;-70
2023/07/21 02:45:52;;;;;;;5.33;4.93;;;14.90;99.90;;;;;;5067556;28;20407;-71
2023/07/21 02:48:19;;;;;;;6.03;5.43;;;14.90;99.90;;;;;;5067743;28;20460;-71
2023/07/21 02:50:48;;;;;;;5.70;5.23;;;14.90;99.90;;;;;;5067995;28;20530;-71
2023/07/21 02:53:15;;;;;;;5.40;4.90;;;14.90;99.90;;;;;;5067823;28;20900;-71
2023/07/21 02:55:42;;;;;;;5.80;5.30;;;14.90;99.90;;;;;;5067135;28;20438;-71
2023/07/21 02:58:09;;;;;;;6.50;5.90;;;14.90;99.90;;;;;;5067441;28;20518;-71
2023/07/21 03:00:35;;;;;;;5.77;5.37;;;14.90;99.90;;;;;;5067853;28;20438;-71
2023/07/21 03:03:03;;;;;;;6.43;5.93;;;15.00;99.90;;;;;;5067033;28;20415;-71
2023/07/21 03:05:29;;;;;;;7.50;6.80;;;15.10;99.90;;;;;;5067510;28;20196;-71
2023/07/21 03:07:57;;;;;;;5.90;5.40;;;15.00;99.90;;;;;;5067468;28;20787;-71
2023/07/21 03:10:23;;;;;;;5.97;5.50;;;15.00;99.90;;;;;;5066102;28;20932;-71
2023/07/21 03:12:48;;;;;;;6.30;5.80;;;15.00;99.90;;;;;;5067277;28;20410;-70
2023/07/21 03:15:15;;;;;;;5.77;5.13;;;15.00;99.90;;;;;;5067286;28;20446;-71
2023/07/21 03:17:41;;;;;;;5.70;5.20;;;15.00;99.90;;;;;;5067672;28;20396;-71
2023/07/21 03:20:14;;;;;;;6.63;6.13;;;15.00;99.90;;;;;;5067347;28;20797;-71
2023/07/21 03:22:42;;;;;;;5.90;5.40;;;15.00;99.90;;;;;;5067295;28;20561;-71
2023/07/21 03:25:09;;;;;;;5.67;5.17;;;15.00;99.90;;;;;;5066932;28;20447;-71
2023/07/21 03:27:35;;;;;;;6.00;5.50;;;14.90;99.90;;;;;;5067259;28;20954;-70
2023/07/21 03:30:02;;;;;;;5.77;5.27;;;14.90;99.90;;;;;;5067415;28;20411;-71
2023/07/21 03:32:28;;;;;;;5.83;5.33;;;14.80;99.90;;;;;;5067002;28;20784;-71
2023/07/21 03:34:57;;;;;;;6.00;5.50;;;14.70;99.90;;;;;;5067434;28;20403;-71
2023/07/21 03:37:25;;;;;;;6.17;5.67;;;14.80;99.90;;;;;;5067288;28;20434;-71
2023/07/21 03:39:54;;;;;;;5.67;5.07;;;14.70;99.90;;;;;;5067360;28;20407;-71
2023/07/21 03:42:20;;;;;;;6.00;5.50;;;14.70;99.90;;;;;;5066851;28;20422;-71
2023/07/21 03:44:49;;;;;;;6.00;5.50;;;14.70;99.90;;;;;;5067109;28;20451;-71
2023/07/21 03:47:19;;;;;;;7.57;6.87;;;14.70;99.90;;;;;;5067199;28;20685;-71
2023/07/21 03:49:46;;;;;;;6.63;5.20;;;14.60;99.90;;;;;;5067362;28;20400;-71
2023/07/21 03:52:13;;;;;;;6.70;6.10;;;14.60;99.90;;;;;;5066890;28;20403;-71
2023/07/21 03:54:40;;;;;;;5.93;5.53;;;14.60;99.90;;;;;;5065655;28;20408;-71
2023/07/21 03:57:06;;;;;;;6.10;5.60;;;14.60;99.90;;;;;;5066333;28;20439;-71
2023/07/21 03:59:32;;;;;;;6.83;6.33;;;14.60;99.90;;;;;;5065807;28;20441;-71
2023/07/21 04:01:58;;;;;;;6.90;6.07;;;14.60;99.90;;;;;;5065588;28;20181;-71
2023/07/21 04:04:23;;;;;;;8.63;6.73;;;14.60;99.90;;;;;;5066781;28;20207;-71
2023/07/21 04:06:49;;;;;;;6.90;6.30;;;14.50;99.90;;;;;;5065829;28;20418;-71
2023/07/21 04:09:15;;;;;;;8.50;7.27;;;14.60;99.90;;;;;;5066706;28;20495;-71
2023/07/21 04:11:42;;;;;;;6.90;6.40;;;14.60;99.90;;;;;;5068533;28;20177;-71
2023/07/21 04:14:07;;;;;;;6.13;5.63;;;14.60;99.90;;;;;;5070205;28;20173;-71
2023/07/21 04:16:34;;;;;;;6.80;6.30;;;14.60;99.90;;;;;;5070267;28;20510;-71
2023/07/21 04:18:59;;;;;;;7.30;6.70;;;14.60;99.90;;;;;;5070702;28;20502;-71
2023/07/21 04:21:25;;;;;;;7.40;6.80;;;14.60;99.90;;;;;;5070201;28;20823;-70
2023/07/21 04:23:52;;;;;;;7.63;7.00;;;14.60;99.90;;;;;;5070210;28;20201;-71
2023/07/21 04:26:18;;;;;;;9.77;8.87;;;14.60;99.90;;;;;;5069657;28;20197;-71
2023/07/21 04:28:44;;;;;;;8.83;8.03;;;14.60;99.90;;;;;;5070465;28;20415;-71
2023/07/21 04:31:10;;;;;;;10.30;9.27;;;14.70;99.90;;;;;;5065858;28;20431;-71
2023/07/21 04:33:37;;;;;;;10.00;9.10;;;14.70;99.90;;;;;;5067583;28;20423;-71
2023/07/21 04:36:04;;;;;;;11.30;10.13;;;14.80;99.90;;;;;;5066582;28;21027;-71
2023/07/21 04:38:30;;;;;;;11.87;10.77;;;14.90;99.90;;;;;;5069766;28;20400;-71
2023/07/21 04:40:56;;;;;;;11.53;10.00;;;15.00;99.90;;;;;;5070194;28;20414;-71
2023/07/21 04:43:21;;;;;;;12.03;10.67;;;15.00;99.90;;;;;;5070109;28;20888;-71
2023/07/21 04:45:47;;;;;;;12.20;11.10;;;15.00;99.90;;;;;;5069870;28;20264;-71
2023/07/21 04:48:13;;;;;;;13.83;12.43;;;15.10;99.90;;;;;;5068900;28;20208;-71
2023/07/21 04:50:42;;;;;;;11.67;10.57;;;15.10;99.90;;;;;;5069987;28;20367;-71
2023/07/21 04:53:11;;;;;;;11.83;10.70;;;15.10;99.90;;;;;;5069622;28;20173;-71
2023/07/21 04:55:38;;;;;;;12.83;11.53;;;15.00;99.90;;;;;;5068586;28;20472;-71
2023/07/21 04:58:05;;;;;;;12.93;11.50;;;15.10;99.90;;;;;;5069776;28;20432;-71
2023/07/21 05:00:32;;;;;;;13.70;12.30;;;15.20;99.90;;;;;;5069793;28;20400;-70
2023/07/21 05:02:58;;;;;;;14.17;12.77;;;15.20;99.90;;;;;;5069260;28;20811;-71
2023/07/21 05:05:23;;;;;;;14.47;13.10;;;15.30;99.90;;;;;;5069467;28;20440;-71
2023/07/21 05:07:49;;;;;;;15.53;13.93;;;15.30;99.90;;;;;;5069766;28;20204;-71
2023/07/21 05:10:15;;;;;;;16.27;14.53;;;15.30;99.90;;;;;;5069791;28;20400;-71
2023/07/21 05:12:42;;;;;;;17.67;15.83;;;15.30;99.90;;;;;;5069184;28;20260;-71
2023/07/21 05:15:08;;;;;;;17.67;15.93;;;15.40;99.90;;;;;;5070089;28;20177;-71
2023/07/21 05:17:34;;;;;;;17.77;15.97;;;15.40;99.90;;;;;;5069209;28;20454;-71
2023/07/21 05:20:01;;;;;;;17.40;15.70;;;15.40;99.90;;;;;;5069579;28;20403;-71
2023/07/21 05:22:27;;;;;;;16.50;14.80;;;15.50;99.90;;;;;;5062369;28;20422;-71
2023/07/21 05:24:53;;;;;;;17.47;15.67;;;15.50;99.90;;;;;;5066613;28;20454;-70
2023/07/21 05:27:19;;;;;;;16.33;14.60;;;15.60;99.90;;;;;;5068320;28;20447;-71
2023/07/21 05:29:45;;;;;;;17.80;16.00;;;15.60;99.90;;;;;;5069071;28;20777;-70
2023/07/21 05:32:10;;;;;;;16.60;14.90;;;15.70;99.90;;;;;;5064531;28;21011;-71
2023/07/21 05:34:36;;;;;;;16.23;14.10;;;15.70;99.90;;;;;;5067568;28;20254;-71
2023/07/21 05:37:02;;;;;;;15.40;13.10;;;15.80;99.90;;;;;;5069171;28;20196;-71
2023/07/21 05:39:29;;;;;;;16.40;14.80;;;15.80;99.90;;;;;;5067932;28;20239;-71
2023/07/21 05:41:56;;;;;;;16.17;14.47;;;15.80;99.90;;;;;;5068555;28;20192;-71
2023/07/21 05:44:22;;;;;;;17.17;15.40;;;15.90;99.90;;;;;;5068448;28;20493;-71
2023/07/21 05:46:48;;;;;;;17.67;15.87;;;15.90;99.90;;;;;;5068337;28;20424;-70
2023/07/21 05:49:15;;;;;;;17.90;16.20;;;16.00;99.90;;;;;;5067658;28;20426;-71
2023/07/21 05:51:41;;;;;;;18.40;16.70;;;16.00;99.90;;;;;;5065170;28;20173;-70
2023/07/21 05:54:07;;;;;;;19.87;17.77;;;16.10;99.90;;;;;;5066807;28;20477;-71
2023/07/21 05:56:33;;;;;;;16.37;14.47;;;16.10;99.90;;;;;;5066999;28;20201;-71
2023/07/21 05:58:58;;;;;;;17.23;15.43;;;16.20;99.90;;;;;;5068310;28;20194;-71
2023/07/21 06:01:24;;;;;;;17.07;14.00;;;16.30;99.90;;;;;;5068778;28;20223;-71
2023/07/21 06:03:50;;;;;;;16.83;15.10;;;16.40;99.90;;;;;;5067962;28;20678;-71
2023/07/21 06:06:16;;;;;;;18.13;16.30;;;16.50;99.90;;;;;;5068134;28;20295;-71
2023/07/21 06:08:41;;;;;;;13.20;12.10;;;16.70;99.90;;;;;;5068500;28;20177;-71
2023/07/21 06:11:07;;;;;;;16.13;14.60;;;16.80;99.90;;;;;;5061724;28;20192;-71
2023/07/21 06:13:33;;;;;;;17.97;16.27;;;16.90;99.90;;;;;;5061411;28;20626;-71
2023/07/21 06:15:58;;;;;;;17.07;15.50;;;17.00;99.90;;;;;;5067544;28;20208;-71
2023/07/21 06:18:24;;;;;;;16.37;14.40;;;17.20;99.90;;;;;;5067903;28;20277;-71
2023/07/21 06:20:53;;;;;;;14.87;13.37;;;17.30;99.90;;;;;;5066779;28;20238;-71
2023/07/21 06:23:19;;;;;;;15.43;14.00;;;17.40;99.90;;;;;;5067164;28;20185;-71
2023/07/21 06:25:45;;;;;;;14.63;13.13;;;17.50;99.90;;;;;;5068040;28;20467;-71
2023/07/21 06:28:12;;;;;;;17.23;15.43;;;17.60;99.90;;;;;;5067901;28;20443;-71
2023/07/21 06:30:38;;;;;;;17.77;16.00;;;17.80;99.90;;;;;;5068160;28;20177;-71
2023/07/21 06:33:07;;;;;;;16.47;14.83;;;17.80;99.90;;;;;;5065797;28;20436;-71
2023/07/21 06:35:34;;;;;;;15.90;14.30;;;17.80;99.90;;;;;;5067175;28;20189;-71
2023/07/21 06:38:00;;;;;;;15.63;14.13;;;17.90;99.90;;;;;;5067006;28;20451;-71
2023/07/21 06:40:26;;;;;;;15.63;14.20;;;18.00;99.90;;;;;;5064698;28;20423;-71
2023/07/21 06:42:52;;;;;;;20.43;14.57;;;18.10;99.90;;;;;;5065859;28;20420;-71
2023/07/21 06:45:18;;;;;;;15.30;12.83;;;18.10;99.90;;;;;;5066551;28;20212;-71
2023/07/21 06:47:43;;;;;;;15.13;13.63;;;18.20;99.90;;;;;;5067494;28;20684;-71
2023/07/21 06:50:10;;;;;;;16.37;14.57;;;18.20;99.90;;;;;;5067510;28;20533;-71
2023/07/21 06:52:35;;;;;;;17.23;14.70;;;18.20;99.90;;;;;;5065575;28;20173;-71
2023/07/21 06:55:02;;;;;;;15.27;13.20;;;18.20;99.90;;;;;;5067023;28;20420;-71
2023/07/21 06:57:28;;;;;;;14.40;13.10;;;18.20;99.90;;;;;;5059941;28;20209;-71
2023/07/21 06:59:53;;;;;;;15.00;13.50;;;18.20;99.90;;;;;;5066454;28;20564;-71
2023/07/21 07:02:19;;;;;;;13.87;12.53;;;18.20;99.90;;;;;;5066365;28;20185;-71
2023/07/21 07:04:47;;;;;;;13.30;12.00;;;18.20;99.90;;;;;;5064329;28;20286;-71
2023/07/21 07:07:13;;;;;;;13.80;12.60;;;18.10;99.90;;;;;;5065539;28;20205;-71
2023/07/21 07:09:39;;;;;;;14.60;13.10;;;18.00;99.90;;;;;;5066728;28;20415;-71
2023/07/21 07:12:06;;;;;;;14.40;11.90;;;18.00;99.90;;;;;;5066154;28;20454;-71
2023/07/21 07:14:32;;;;;;;14.20;12.93;;;17.90;99.90;;;;;;5061902;28;20264;-71
2023/07/21 07:16:57;;;;;;;14.77;13.30;;;17.90;99.90;;;;;;5065633;28;20530;-71
2023/07/21 07:19:23;;;;;;;14.50;13.10;;;18.00;99.90;;;;;;5067330;28;20668;-71
2023/07/21 07:21:49;;;;;;;15.60;13.87;;;18.00;99.90;;;;;;5067362;28;20192;-71
2023/07/21 07:24:14;;;;;;;14.13;12.83;;;18.00;99.90;;;;;;5058129;28;20706;-71
2023/07/21 07:26:40;;;;;;;14.73;13.30;;;18.20;99.90;;;;;;5045995;28;20207;-71
2023/07/21 07:29:06;;;;;;;14.20;12.80;;;18.30;99.90;;;;;;5066287;28;20211;-71
2023/07/21 07:31:31;;;;;;;13.50;12.20;;;18.40;99.90;;;;;;5065781;28;20185;-71
2023/07/21 07:33:58;;;;;;;12.47;11.37;;;18.50;99.90;;;;;;5064316;28;20638;-71
2023/07/21 07:36:24;;;;;;;14.57;11.20;;;18.50;99.90;;;;;;5065709;28;20997;-71
2023/07/21 07:38:49;;;;;;;12.77;11.57;;;18.50;99.90;;;;;;5066240;28;20404;-71
2023/07/21 07:41:15;;;;;;;10.53;9.67;;;18.50;99.90;;;;;;5064996;28;20495;-71
2023/07/21 07:43:41;;;;;;;15.93;11.60;;;18.60;99.90;;;;;;5066407;28;20200;-71
2023/07/21 07:46:07;;;;;;;11.10;9.63;;;18.70;99.90;;;;;;5067126;28;20498;-71
2023/07/21 07:48:34;;;;;;;9.50;8.33;;;18.80;99.90;;;;;;5071186;28;20200;-71
2023/07/21 07:51:03;;;;;;;9.87;8.97;;;18.90;99.90;;;;;;5071201;28;20403;-71
2023/07/21 07:53:29;;;;;;;8.80;8.00;;;19.10;99.90;;;;;;5070596;28;20494;-71
2023/07/21 07:55:55;;;;;;;7.87;7.17;;;19.20;99.90;;;;;;5069044;28;20415;-71
2023/07/21 07:58:21;;;;;;;10.83;9.83;;;19.30;99.90;;;;;;5070915;28;20631;-71
2023/07/21 08:00:47;;;;;;;7.87;7.17;;;19.40;99.90;;;;;;5071413;28;20188;-71
2023/07/21 08:03:14;;;;;;;8.80;7.37;;;19.40;99.90;;;;;;5070144;28;20607;-71
2023/07/21 08:05:40;;;;;;;6.80;6.20;;;19.60;99.90;;;;;;5070707;28;20455;-72
2023/07/21 08:08:08;;;;;;;5.90;5.33;;;19.60;99.90;;;;;;5070547;28;20435;-71
2023/07/21 08:10:34;;;;;;;7.07;6.47;;;19.60;99.90;;;;;;5070870;28;20407;-71
2023/07/21 08:13:02;;;;;;;7.87;7.20;;;19.60;99.90;;;;;;5070217;28;20490;-71
2023/07/21 08:15:29;;;;;;;6.70;6.00;;;19.70;99.90;;;;;;5070498;28;20510;-71
2023/07/21 08:17:54;;;;;;;6.33;5.73;;;19.70;99.90;;;;;;5070757;28;20778;-71
2023/07/21 08:20:20;;;;;;;7.10;5.70;;;19.70;99.90;;;;;;5070480;28;20480;-71
2023/07/21 08:22:52;;;;;;;6.70;6.00;;;19.80;99.90;;;;;;5068854;28;20185;-72
2023/07/21 08:25:19;;;;;;;6.30;5.70;;;19.80;99.90;;;;;;5069934;28;20901;-72
2023/07/21 08:27:45;;;;;;;7.00;6.40;;;19.80;99.90;;;;;;5070451;28;20423;-71
2023/07/21 08:30:12;;;;;;;8.17;6.03;;;19.90;99.90;;;;;;5070127;28;20484;-71
2023/07/21 08:32:40;;;;;;;7.10;6.00;;;19.80;99.90;;;;;;5070129;28;20514;-72
2023/07/21 08:35:10;;;;;;;6.30;5.33;;;19.80;99.90;;;;;;5068463;28;20442;-71
2023/07/21 08:37:36;;;;;;;6.47;5.77;;;19.70;99.90;;;;;;5070245;28;20496;-71
2023/07/21 08:40:03;;;;;;;6.30;5.80;;;19.80;99.90;;;;;;5070181;28;20806;-71
2023/07/21 08:42:32;;;;;;;9.13;5.80;;;19.90;99.90;;;;;;5068924;28;20434;-71
2023/07/21 08:45:00;;;;;;;5.87;5.17;;;19.90;99.90;;;;;;5069945;28;20458;-71
2023/07/21 08:47:25;;;;;;;6.10;5.60;;;20.00;99.90;;;;;;5068478;28;20511;-71
2023/07/21 08:49:51;;;;;;;6.30;5.70;;;20.10;99.90;;;;;;5070038;28;20522;-71
2023/07/21 08:52:17;;;;;;;6.10;5.50;;;20.10;99.90;;;;;;5069476;28;20408;-71
2023/07/21 08:54:43;;;;;;;4.93;4.43;;;20.00;99.90;;;;;;5069732;28;20607;-72
2023/07/21 08:57:13;;;;;;;5.10;4.70;;;20.10;99.90;;;;;;5068391;28;20212;-71
2023/07/21 08:59:39;;;;;;;5.33;4.93;;;20.10;99.90;;;;;;5069808;28;20411;-71
2023/07/21 09:02:05;;;;;;;5.80;5.10;;;20.10;99.90;;;;;;5069494;28;20422;-71
2023/07/21 09:04:31;;;;;;;6.40;5.90;;;20.20;99.90;;;;;;5069274;28;21048;-71
2023/07/21 09:06:59;;;;;;;5.73;5.23;;;20.30;99.90;;;;;;5069657;28;20431;-71
2023/07/21 09:09:27;;;;;;;8.00;7.30;;;20.40;99.90;;;;;;5069372;28;20181;-71
2023/07/21 09:12:01;;;;;;;8.30;7.50;;;20.40;99.90;;;;;;5069792;28;20522;-71
2023/07/21 09:14:39;;;;;;;7.83;7.03;;;20.40;99.90;;;;;;5069138;28;21022;-71
2023/07/21 09:17:06;;;;;;;8.57;7.87;;;20.50;99.90;;;;;;5069459;28;20446;-72
2023/07/21 09:19:40;;;;;;;8.80;8.00;;;20.50;99.90;;;;;;5069393;28;20458;-72
2023/07/21 09:22:09;;;;;;;9.10;8.30;;;20.50;99.90;;;;;;5069067;28;20418;-71
2023/07/21 09:24:35;;;;;;;7.20;6.50;;;20.40;99.90;;;;;;5069061;28;20497;-72
2023/07/21 09:27:11;;;;;;;7.20;6.60;;;20.40;99.90;;;;;;5069184;28;20518;-71
2023/07/21 09:29:37;;;;;;;6.77;6.17;;;20.30;99.90;;;;;;5069222;28;20502;-71
2023/07/21 09:32:17;;;;;;;7.40;6.80;;;20.40;99.90;;;;;;5069130;28;20495;-71
2023/07/21 09:35:18;;;;;;;7.20;6.50;;;20.50;99.90;;;;;;5068766;28;20208;-72
2023/07/21 09:37:52;;;;;;;7.20;6.60;;;20.60;99.90;;;;;;5046410;28;20455;-71
2023/07/21 09:40:27;;;;;;;4.83;4.53;;;20.60;99.90;;;;;;5061650;28;20423;-71
2023/07/21 09:42:53;;;;;;;6.90;6.30;;;20.60;99.90;;;;;;5068830;28;20441;-72
2023/07/21 09:45:20;;;;;;;5.40;4.90;;;20.50;99.90;;;;;;5068454;28;20458;-71
2023/07/21 09:47:48;;;;;;;7.03;6.43;;;20.50;99.90;;;;;;5068911;28;20442;-71
2023/07/21 09:50:14;;;;;;;8.03;7.33;;;20.60;99.90;;;;;;5068663;28;20403;-72
2023/07/21 09:52:42;;;;;;;7.70;7.10;;;20.70;99.90;;;;;;5068673;28;20424;-71
2023/07/21 09:55:10;;;;;;;6.60;6.10;;;20.60;99.90;;;;;;5068254;28;20419;-72
2023/07/21 09:57:41;;;;;;;7.30;6.70;;;20.60;99.90;;;;;;5068676;28;20482;-71
2023/07/21 10:00:13;;;;;;;6.80;6.30;;;20.50;99.90;;;;;;5068538;28;20442;-71
2023/07/21 10:02:41;;;;;;;9.20;7.17;;;20.50;99.90;;;;;;5068344;28;20416;-71
2023/07/21 10:05:09;;;;;;;7.10;6.40;;;20.50;99.90;;;;;;5068340;28;20493;-71
2023/07/21 10:07:46;;;;;;;5.63;5.23;;;20.60;99.90;;;;;;5068461;28;20443;-71
2023/07/21 10:10:12;;;;;;;6.80;6.17;;;20.70;99.90;;;;;;5067775;28;20460;-71
2023/07/21 10:12:46;;;;;;;8.70;8.00;;;21.00;99.90;;;;;;5067999;28;20454;-71
2023/07/21 10:15:40;;;;;;;10.90;9.53;;;21.20;99.90;;;;;;5068319;28;20426;-71
2023/07/21 10:18:11;;;;;;;8.50;7.67;;;21.20;99.90;;;;;;5067396;28;20477;-71
2023/07/21 10:20:52;;;;;;;8.23;7.40;;;21.30;99.90;;;;;;5068057;28;20845;-71
2023/07/21 10:23:34;;;;;;;6.63;6.03;;;21.40;99.90;;;;;;5067964;28;20419;-72
2023/07/21 10:26:11;;;;;;;6.73;6.27;;;21.50;99.90;;;;;;5067956;28;20489;-71
2023/07/21 10:28:43;;;;;;;6.50;6.00;;;21.60;99.90;;;;;;5068164;28;20403;-71
2023/07/21 10:31:30;;;;;;;6.63;6.13;;;21.60;99.90;;;;;;5068132;28;20441;-71
2023/07/21 10:34:16;;;;;;;5.90;5.50;;;21.60;99.90;;;;;;5068341;28;20757;-71
2023/07/21 10:36:51;;;;;;;8.03;7.43;;;21.60;99.90;;;;;;5058513;28;20682;-71
2023/07/21 10:39:26;;;;;;;7.90;7.27;;;21.50;99.90;;;;;;5056893;28;20448;-71
2023/07/21 10:42:06;;;;;;;6.77;6.27;;;21.50;99.90;;;;;;5063937;28;20513;-71
2023/07/21 10:44:44;;;;;;;7.10;6.60;;;21.40;99.90;;;;;;5049502;28;20467;-71
2023/07/21 10:47:20;;;;;;;7.90;7.30;;;21.40;99.90;;;;;;5062451;28;20933;-71
2023/07/21 10:49:47;;;;;;;7.33;6.67;;;21.50;99.90;;;;;;5059199;28;20415;-71
2023/07/21 10:52:14;;;;;;;8.30;7.50;;;21.50;99.90;;;;;;5060037;28;20423;-71
2023/07/21 10:54:40;;;;;;;6.60;6.00;;;21.50;99.90;;;;;;5061889;28;20428;-71
2023/07/21 10:57:08;;;;;;;8.10;6.50;;;21.50;99.90;;;;;;5057871;28;20447;-71
2023/07/21 10:59:36;;;;;;;6.33;5.87;;;21.70;99.90;;;;;;5064638;28;20423;-72
2023/07/21 11:02:06;;;;;;;7.90;7.20;;;21.80;99.90;;;;;;5056079;28;20424;-71
2023/07/21 11:04:32;;;;;;;7.50;6.90;;;21.90;99.90;;;;;;5061510;28;20498;-71
2023/07/21 11:06:59;;;;;;;8.63;7.83;;;22.00;99.90;;;;;;5062812;28;20874;-71
2023/07/21 11:09:27;;;;;;;7.07;6.47;;;22.00;99.90;;;;;;5061628;28;20215;-72
2023/07/21 11:11:55;;;;;;;7.40;6.80;;;22.00;99.90;;;;;;5063894;28;20807;-71
2023/07/21 11:14:25;;;;;;;7.20;6.60;;;22.10;99.90;;;;;;5059647;28;20442;-71
2023/07/21 11:16:52;;;;;;;8.40;7.07;;;22.20;99.90;;;;;;5060220;28;20443;-71
2023/07/21 11:19:19;;;;;;;7.17;6.53;;;22.20;99.90;;;;;;5060684;28;20510;-72
2023/07/21 11:21:46;;;;;;;8.17;7.47;;;22.30;99.90;;;;;;5066619;28;20423;-71
2023/07/21 11:24:16;;;;;;;7.13;6.43;;;22.40;99.90;;;;;;5061759;28;21106;-71
2023/07/21 11:26:42;;;;;;;8.13;7.53;;;22.50;99.40;;;;;;5066094;28;20956;-71
2023/07/21 11:29:08;;;;;;;9.60;8.90;;;22.60;99.00;;;;;;5071018;28;20419;-71
2023/07/21 11:31:36;;;;;;;8.60;7.90;;;22.60;98.20;;;;;;5063488;28;20226;-71
2023/07/21 11:34:03;;;;;;;7.80;7.20;;;22.50;97.90;;;;;;5064047;28;20416;-71
2023/07/21 11:36:31;;;;;;;7.50;7.00;;;22.40;98.00;;;;;;5063068;28;20554;-71
2023/07/21 11:39:10;;;;;;;6.63;6.10;;;22.50;99.10;;;;;;5074074;28;20429;-71
2023/07/21 11:41:42;;;;;;;5.63;5.13;;;22.60;98.90;;;;;;5074887;28;20418;-71
2023/07/21 11:44:16;;;;;;;6.17;5.77;;;22.60;98.30;;;;;;5081386;28;20589;-71
2023/07/21 11:46:42;;;;;;;5.80;5.37;;;22.60;98.50;;;;;;5077399;28;20441;-71
2023/07/21 11:49:10;;;;;;;7.07;6.43;;;22.60;98.20;;;;;;5074349;28;20423;-71
2023/07/21 11:51:51;;;;;;;5.50;5.00;;;22.60;96.90;;;;;;5079518;28;20176;-71
2023/07/21 11:54:23;;;;;;;5.90;5.50;;;22.50;97.30;;;;;;5074198;28;20427;-72
2023/07/21 11:56:50;;;;;;;4.93;4.53;;;22.40;97.20;;;;;;5064550;28;20491;-71
2023/07/21 11:59:17;;;;;;;5.93;5.33;;;22.30;97.50;;;;;;5066461;28;20895;-72
2023/07/21 12:01:43;;;;;;;5.10;4.70;;;22.20;98.40;;;;;;5063617;28;20403;-71
2023/07/21 12:04:10;;;;;;;4.43;4.03;;;22.30;98.40;;;;;;5063422;28;20553;-71
2023/07/21 12:06:36;;;;;;;6.07;5.50;;;22.30;97.40;;;;;;5059614;28;20447;-72
2023/07/21 12:09:05;;;;;;;5.03;4.30;;;22.40;97.20;;;;;;5064611;28;20892;-71
2023/07/21 12:11:35;;;;;;;5.37;3.87;;;22.30;97.90;;;;;;5069403;28;20727;-72
2023/07/21 12:14:02;;;;;;;4.50;4.00;;;22.40;97.40;;;;;;5060673;28;20458;-71
2023/07/21 12:16:29;;;;;;;4.40;4.00;;;22.60;97.30;;;;;;5065470;28;20451;-71
2023/07/21 12:18:56;;;;;;;4.27;3.97;;;22.70;96.90;;;;;;5060967;28;20415;-71
2023/07/21 12:21:25;;;;;;;3.90;3.60;;;22.90;97.10;;;;;;5064171;28;20423;-71
2023/07/21 12:23:51;;;;;;;3.40;3.10;;;23.00;96.50;;;;;;5066801;28;20419;-71
2023/07/21 12:26:20;;;;;;;4.73;4.33;;;23.20;96.40;;;;;;5061770;28;20777;-71
2023/07/21 12:28:48;;;;;;;3.23;3.03;;;23.10;94.40;;;;;;5068191;28;20553;-71
2023/07/21 12:31:15;;;;;;;4.17;3.73;;;23.00;95.10;;;;;;5062440;28;20431;-71
2023/07/21 12:33:42;;;;;;;3.50;3.27;;;22.90;96.00;;;;;;5063666;28;20504;-71
2023/07/21 12:36:09;;;;;;;3.70;3.40;;;22.90;95.50;;;;;;5067100;28;20435;-71
2023/07/21 12:38:34;;;;;;;4.50;4.10;;;22.80;95.80;;;;;;5066122;28;20423;-71
2023/07/21 12:41:00;;;;;;;3.47;3.17;;;22.60;94.40;;;;;;5060716;28;20765;-72
2023/07/21 12:43:26;;;;;;;3.80;3.50;;;22.50;94.40;;;;;;5068267;28;20231;-72